sensor_id;sensor_type;location;lat;lon;timestamp;pressure;altitude;pressure_sealevel;temperature;humidity
12897;BME280;6516;35.028;32.372;2023-03-15T00:02:06;99308.84;;;10.22;100.00
12897;BME280;6516;35.028;32.372;2023-03-15T00:04:34;99307.84;;;10.26;100.00
12897;BME280;6516;35.028;32.372;2023-03-15T00:07:01;99299.91;;;10.28;100.00
12897;BME280;6516;35.028;32.372;2023-03-15T00:09:29;99298.63;;;10.41;100.00
12897;BME280;6516;35.028;32.372;2023-03-15T00:11:57;99293.38;;;10.41;100.00
12897;BME280;6516;35.028;32.372;2023-03-15T00:14:25;99288.47;;;10.29;100.00
12897;BME280;6516;35.028;32.372;2023-03-15T00:16:52;99291.34;;;10.21;100.00
12897;BME280;6516;35.028;32.372;2023-03-15T00:19:22;99290.22;;;10.28;100.00
12897;BME280;6516;35.028;32.372;2023-03-15T00:21:49;99293.53;;;10.35;100.00
12897;BME280;6516;35.028;32.372;2023-03-15T00:24:17;99287.88;;;10.48;100.00
12897;BME280;6516;35.028;32.372;2023-03-15T00:26:45;99294.56;;;10.58;100.00
12897;BME280;6516;35.028;32.372;2023-03-15T00:29:13;99291.13;;;10.56;100.00
12897;BME280;6516;35.028;32.372;2023-03-15T00:31:41;99285.94;;;10.53;100.00
12897;BME280;6516;35.028;32.372;2023-03-15T00:34:09;99291.41;;;10.47;100.00
12897;BME280;6516;35.028;32.372;2023-03-15T00:36:40;99285.94;;;10.53;100.00
12897;BME280;6516;35.028;32.372;2023-03-15T00:39:08;99296.09;;;10.65;100.00
12897;BME280;6516;35.028;32.372;2023-03-15T00:41:36;99288.34;;;10.61;100.00
12897;BME280;6516;35.028;32.372;2023-03-15T00:44:04;99297.44;;;10.51;100.00
12897;BME280;6516;35.028;32.372;2023-03-15T00:46:31;99294.94;;;10.46;100.00
12897;BME280;6516;35.028;32.372;2023-03-15T00:48:59;99300.19;;;10.46;100.00
12897;BME280;6516;35.028;32.372;2023-03-15T00:51:27;99292.28;;;10.46;100.00
12897;BME280;6516;35.028;32.372;2023-03-15T00:53:57;99298.78;;;10.35;100.00
12897;BME280;6516;35.028;32.372;2023-03-15T00:56:26;99295.41;;;10.31;100.00
12897;BME280;6516;35.028;32.372;2023-03-15T00:58:56;99299.22;;;10.21;100.00
12897;BME280;6516;35.028;32.372;2023-03-15T01:01:25;99304.97;;;10.34;100.00
12897;BME280;6516;35.028;32.372;2023-03-15T01:03:54;99298.56;;;10.42;100.00
12897;BME280;6516;35.028;32.372;2023-03-15T01:06:24;99298.38;;;10.48;100.00
12897;BME280;6516;35.028;32.372;2023-03-15T01:08:52;99299.19;;;10.50;100.00
12897;BME280;6516;35.028;32.372;2023-03-15T01:11:24;99299.38;;;10.44;100.00
12897;BME280;6516;35.028;32.372;2023-03-15T01:13:55;99293.16;;;10.47;100.00
12897;BME280;6516;35.028;32.372;2023-03-15T01:16:23;99296.59;;;10.49;100.00
12897;BME280;6516;35.028;32.372;2023-03-15T01:18:52;99295.63;;;10.51;100.00
12897;BME280;6516;35.028;32.372;2023-03-15T01:21:21;99293.75;;;10.56;100.00
12897;BME280;6516;35.028;32.372;2023-03-15T01:23:49;99305.16;;;10.55;100.00
12897;BME280;6516;35.028;32.372;2023-03-15T01:26:17;99304.31;;;10.55;100.00
12897;BME280;6516;35.028;32.372;2023-03-15T01:28:48;99301.69;;;10.55;100.00
12897;BME280;6516;35.028;32.372;2023-03-15T01:31:18;99306.78;;;10.59;100.00
12897;BME280;6516;35.028;32.372;2023-03-15T01:33:47;99299.72;;;10.61;100.00
12897;BME280;6516;35.028;32.372;2023-03-15T01:36:15;99310.25;;;10.61;100.00
12897;BME280;6516;35.028;32.372;2023-03-15T01:38:43;99304.75;;;10.69;100.00
12897;BME280;6516;35.028;32.372;2023-03-15T01:41:12;99301.19;;;10.70;100.00
12897;BME280;6516;35.028;32.372;2023-03-15T01:43:41;99302.97;;;10.69;100.00
12897;BME280;6516;35.028;32.372;2023-03-15T01:46:23;99305.22;;;10.81;100.00
12897;BME280;6516;35.028;32.372;2023-03-15T01:48:56;99304.13;;;10.88;100.00
12897;BME280;6516;35.028;32.372;2023-03-15T01:51:33;99304.19;;;10.85;100.00
12897;BME280;6516;35.028;32.372;2023-03-15T01:54:06;99311.19;;;10.86;100.00
12897;BME280;6516;35.028;32.372;2023-03-15T01:56:40;99306.03;;;10.83;100.00
12897;BME280;6516;35.028;32.372;2023-03-15T01:59:13;99322.50;;;10.62;100.00
12897;BME280;6516;35.028;32.372;2023-03-15T02:01:45;99324.75;;;10.47;100.00
12897;BME280;6516;35.028;32.372;2023-03-15T02:04:17;99318.84;;;10.39;100.00
12897;BME280;6516;35.028;32.372;2023-03-15T02:06:50;99321.63;;;10.34;100.00
12897;BME280;6516;35.028;32.372;2023-03-15T02:09:28;99320.00;;;10.30;100.00
12897;BME280;6516;35.028;32.372;2023-03-15T02:11:58;99313.88;;;10.30;100.00
12897;BME280;6516;35.028;32.372;2023-03-15T02:14:27;99307.41;;;10.12;100.00
12897;BME280;6516;35.028;32.372;2023-03-15T02:16:58;99305.72;;;10.10;100.00
12897;BME280;6516;35.028;32.372;2023-03-15T02:19:35;99312.88;;;10.03;100.00
12897;BME280;6516;35.028;32.372;2023-03-15T02:22:18;99308.66;;;9.98;100.00
12897;BME280;6516;35.028;32.372;2023-03-15T02:24:57;99309.50;;;10.00;100.00
12897;BME280;6516;35.028;32.372;2023-03-15T02:27:32;99312.38;;;9.91;100.00
12897;BME280;6516;35.028;32.372;2023-03-15T02:30:02;99312.75;;;9.77;100.00
12897;BME280;6516;35.028;32.372;2023-03-15T02:32:31;99310.16;;;9.76;100.00
12897;BME280;6516;35.028;32.372;2023-03-15T02:34:58;99320.56;;;9.80;100.00
12897;BME280;6516;35.028;32.372;2023-03-15T02:37:26;99317.75;;;9.86;100.00
12897;BME280;6516;35.028;32.372;2023-03-15T02:39:54;99322.09;;;9.87;100.00
12897;BME280;6516;35.028;32.372;2023-03-15T02:42:22;99328.28;;;9.86;100.00
12897;BME280;6516;35.028;32.372;2023-03-15T02:44:52;99327.31;;;9.89;100.00
12897;BME280;6516;35.028;32.372;2023-03-15T02:47:25;99342.16;;;9.91;100.00
12897;BME280;6516;35.028;32.372;2023-03-15T02:49:54;99338.09;;;9.80;100.00
12897;BME280;6516;35.028;32.372;2023-03-15T02:52:22;99341.56;;;9.82;100.00
12897;BME280;6516;35.028;32.372;2023-03-15T02:54:50;99343.31;;;9.81;100.00
12897;BME280;6516;35.028;32.372;2023-03-15T02:57:19;99343.34;;;9.80;100.00
12897;BME280;6516;35.028;32.372;2023-03-15T02:59:47;99353.97;;;9.77;100.00
12897;BME280;6516;35.028;32.372;2023-03-15T03:02:17;99350.44;;;9.78;100.00
12897;BME280;6516;35.028;32.372;2023-03-15T03:04:46;99352.06;;;9.82;100.00
12897;BME280;6516;35.028;32.372;2023-03-15T03:07:14;99345.75;;;9.87;100.00
12897;BME280;6516;35.028;32.372;2023-03-15T03:09:42;99348.25;;;9.93;100.00
12897;BME280;6516;35.028;32.372;2023-03-15T03:12:10;99342.88;;;9.96;100.00
12897;BME280;6516;35.028;32.372;2023-03-15T03:14:38;99349.75;;;10.02;100.00
12897;BME280;6516;35.028;32.372;2023-03-15T03:17:08;99352.41;;;10.00;100.00
12897;BME280;6516;35.028;32.372;2023-03-15T03:19:37;99354.31;;;9.95;100.00
12897;BME280;6516;35.028;32.372;2023-03-15T03:22:04;99351.75;;;9.92;100.00
12897;BME280;6516;35.028;32.372;2023-03-15T03:24:32;99354.22;;;9.98;100.00
12897;BME280;6516;35.028;32.372;2023-03-15T03:27:00;99356.03;;;9.96;100.00
12897;BME280;6516;35.028;32.372;2023-03-15T03:29:28;99359.50;;;9.98;100.00
12897;BME280;6516;35.028;32.372;2023-03-15T03:31:56;99366.56;;;9.95;100.00
12897;BME280;6516;35.028;32.372;2023-03-15T03:34:25;99362.00;;;10.01;100.00
12897;BME280;6516;35.028;32.372;2023-03-15T03:36:54;99365.09;;;10.17;100.00
12897;BME280;6516;35.028;32.372;2023-03-15T03:39:22;99366.47;;;10.30;100.00
12897;BME280;6516;35.028;32.372;2023-03-15T03:41:50;99368.88;;;10.37;100.00
12897;BME280;6516;35.028;32.372;2023-03-15T03:44:19;99367.06;;;10.39;100.00
12897;BME280;6516;35.028;32.372;2023-03-15T03:46:46;99372.19;;;10.44;100.00
12897;BME280;6516;35.028;32.372;2023-03-15T03:49:14;99369.41;;;10.50;100.00
12897;BME280;6516;35.028;32.372;2023-03-15T03:51:42;99368.53;;;10.49;100.00
12897;BME280;6516;35.028;32.372;2023-03-15T03:54:12;99375.78;;;10.41;100.00
12897;BME280;6516;35.028;32.372;2023-03-15T03:56:40;99381.22;;;10.35;100.00
12897;BME280;6516;35.028;32.372;2023-03-15T03:59:07;99382.25;;;10.30;100.00
12897;BME280;6516;35.028;32.372;2023-03-15T04:01:35;99378.72;;;10.31;100.00
12897;BME280;6516;35.028;32.372;2023-03-15T04:04:03;99376.97;;;10.31;100.00
12897;BME280;6516;35.028;32.372;2023-03-15T04:06:31;99383.94;;;10.32;100.00
12897;BME280;6516;35.028;32.372;2023-03-15T04:08:59;99388.16;;;10.38;100.00
12897;BME280;6516;35.028;32.372;2023-03-15T04:11:28;99387.13;;;10.43;100.00
12897;BME280;6516;35.028;32.372;2023-03-15T04:13:56;99389.28;;;10.58;100.00
12897;BME280;6516;35.028;32.372;2023-03-15T04:16:24;99396.03;;;10.67;100.00
12897;BME280;6516;35.028;32.372;2023-03-15T04:18:52;99396.03;;;10.67;100.00
12897;BME280;6516;35.028;32.372;2023-03-15T04:21:21;99393.41;;;10.67;100.00
12897;BME280;6516;35.028;32.372;2023-03-15T04:23:48;99394.28;;;10.67;100.00
12897;BME280;6516;35.028;32.372;2023-03-15T04:26:16;99395.28;;;10.63;100.00
12897;BME280;6516;35.028;32.372;2023-03-15T04:28:45;99396.19;;;10.62;100.00
12897;BME280;6516;35.028;32.372;2023-03-15T04:31:13;99402.38;;;10.61;100.00
12897;BME280;6516;35.028;32.372;2023-03-15T04:33:41;99405.69;;;10.68;100.00
12897;BME280;6516;35.028;32.372;2023-03-15T04:36:09;99413.44;;;10.72;100.00
12897;BME280;6516;35.028;32.372;2023-03-15T04:38:43;99417.41;;;10.85;100.00
12897;BME280;6516;35.028;32.372;2023-03-15T04:41:12;99411.28;;;10.85;100.00
12897;BME280;6516;35.028;32.372;2023-03-15T04:43:40;99413.72;;;10.93;100.00
12897;BME280;6516;35.028;32.372;2023-03-15T04:46:09;99418.63;;;11.03;100.00
12897;BME280;6516;35.028;32.372;2023-03-15T04:48:37;99424.47;;;11.13;100.00
12897;BME280;6516;35.028;32.372;2023-03-15T04:51:06;99419.66;;;11.25;100.00
12897;BME280;6516;35.028;32.372;2023-03-15T04:53:34;99412.38;;;11.33;100.00
12897;BME280;6516;35.028;32.372;2023-03-15T04:56:03;99419.50;;;11.56;100.00
12897;BME280;6516;35.028;32.372;2023-03-15T04:58:31;99418.22;;;11.69;100.00
12897;BME280;6516;35.028;32.372;2023-03-15T05:00:59;99413.34;;;11.83;100.00
12897;BME280;6516;35.028;32.372;2023-03-15T05:03:28;99416.31;;;11.98;100.00
12897;BME280;6516;35.028;32.372;2023-03-15T05:05:56;99419.31;;;12.12;100.00
12897;BME280;6516;35.028;32.372;2023-03-15T05:08:24;99423.13;;;12.28;100.00
12897;BME280;6516;35.028;32.372;2023-03-15T05:10:52;99419.88;;;12.45;100.00
12897;BME280;6516;35.028;32.372;2023-03-15T05:13:19;99416.59;;;12.61;100.00
12897;BME280;6516;35.028;32.372;2023-03-15T05:15:47;99414.44;;;12.72;100.00
12897;BME280;6516;35.028;32.372;2023-03-15T05:18:15;99411.91;;;12.91;100.00
12897;BME280;6516;35.028;32.372;2023-03-15T05:20:44;99412.06;;;13.11;100.00
12897;BME280;6516;35.028;32.372;2023-03-15T05:23:12;99414.75;;;13.31;100.00
12897;BME280;6516;35.028;32.372;2023-03-15T05:25:40;99414.53;;;13.57;100.00
12897;BME280;6516;35.028;32.372;2023-03-15T05:28:08;99412.56;;;13.82;100.00
12897;BME280;6516;35.028;32.372;2023-03-15T05:30:35;99413.38;;;14.04;100.00
12897;BME280;6516;35.028;32.372;2023-03-15T05:33:03;99419.16;;;14.33;99.86
12897;BME280;6516;35.028;32.372;2023-03-15T05:35:31;99413.53;;;14.59;99.39
12897;BME280;6516;35.028;32.372;2023-03-15T05:38:00;99415.84;;;14.85;96.13
12897;BME280;6516;35.028;32.372;2023-03-15T05:40:28;99418.91;;;15.13;94.25
12897;BME280;6516;35.028;32.372;2023-03-15T05:42:56;99418.31;;;15.44;93.29
12897;BME280;6516;35.028;32.372;2023-03-15T05:45:23;99416.50;;;15.80;93.91
12897;BME280;6516;35.028;32.372;2023-03-15T05:47:51;99419.13;;;16.14;92.08
12897;BME280;6516;35.028;32.372;2023-03-15T05:50:19;99422.88;;;16.44;86.90
12897;BME280;6516;35.028;32.372;2023-03-15T05:52:49;99415.91;;;16.74;86.23
12897;BME280;6516;35.028;32.372;2023-03-15T05:55:19;99421.44;;;17.02;85.35
12897;BME280;6516;35.028;32.372;2023-03-15T05:57:47;99415.59;;;17.26;80.58
12897;BME280;6516;35.028;32.372;2023-03-15T06:00:16;99413.72;;;17.44;78.83
12897;BME280;6516;35.028;32.372;2023-03-15T06:02:46;99421.72;;;17.44;74.46
12897;BME280;6516;35.028;32.372;2023-03-15T06:05:13;99426.00;;;17.46;74.95
12897;BME280;6516;35.028;32.372;2023-03-15T06:07:41;99421.09;;;17.54;76.44
12897;BME280;6516;35.028;32.372;2023-03-15T06:10:10;99427.09;;;17.58;75.84
12897;BME280;6516;35.028;32.372;2023-03-15T06:12:40;99425.75;;;17.51;74.89
12897;BME280;6516;35.028;32.372;2023-03-15T06:15:10;99427.00;;;17.28;75.64
12897;BME280;6516;35.028;32.372;2023-03-15T06:17:37;99434.91;;;17.14;75.28
12897;BME280;6516;35.028;32.372;2023-03-15T06:20:06;99433.53;;;16.92;76.38
12897;BME280;6516;35.028;32.372;2023-03-15T06:22:34;99435.78;;;16.67;76.26
12897;BME280;6516;35.028;32.372;2023-03-15T06:25:03;99431.38;;;16.50;77.69
12897;BME280;6516;35.028;32.372;2023-03-15T06:27:31;99435.03;;;16.31;78.20
12897;BME280;6516;35.028;32.372;2023-03-15T06:30:01;99439.13;;;16.04;80.00
12897;BME280;6516;35.028;32.372;2023-03-15T06:32:28;99436.16;;;15.93;80.87
12897;BME280;6516;35.028;32.372;2023-03-15T06:34:56;99448.72;;;15.72;80.60
12897;BME280;6516;35.028;32.372;2023-03-15T06:37:24;99441.47;;;15.76;80.42
12897;BME280;6516;35.028;32.372;2023-03-15T06:39:52;99448.34;;;15.80;78.70
12897;BME280;6516;35.028;32.372;2023-03-15T06:42:19;99443.53;;;16.05;76.32
12897;BME280;6516;35.028;32.372;2023-03-15T06:44:47;99439.34;;;16.33;75.22
12897;BME280;6516;35.028;32.372;2023-03-15T06:47:16;99446.78;;;16.44;74.58
12897;BME280;6516;35.028;32.372;2023-03-15T06:49:44;99444.97;;;16.27;71.58
12897;BME280;6516;35.028;32.372;2023-03-15T06:52:15;99442.16;;;16.47;72.26
12897;BME280;6516;35.028;32.372;2023-03-15T06:54:43;99436.94;;;16.46;73.43
12897;BME280;6516;35.028;32.372;2023-03-15T06:57:11;99450.94;;;16.49;74.58
12897;BME280;6516;35.028;32.372;2023-03-15T06:59:38;99446.44;;;16.50;75.53
12897;BME280;6516;35.028;32.372;2023-03-15T07:02:12;99451.25;;;16.43;76.62
12897;BME280;6516;35.028;32.372;2023-03-15T07:04:43;99448.75;;;16.40;80.79
12897;BME280;6516;35.028;32.372;2023-03-15T07:07:11;99457.09;;;16.33;80.40
12897;BME280;6516;35.028;32.372;2023-03-15T07:09:40;99452.66;;;16.16;82.48
12897;BME280;6516;35.028;32.372;2023-03-15T07:12:09;99446.47;;;15.99;85.35
12897;BME280;6516;35.028;32.372;2023-03-15T07:14:37;99452.78;;;15.96;87.80
12897;BME280;6516;35.028;32.372;2023-03-15T07:17:05;99456.28;;;15.63;87.13
12897;BME280;6516;35.028;32.372;2023-03-15T07:19:33;99457.22;;;15.62;87.49
12897;BME280;6516;35.028;32.372;2023-03-15T07:22:03;99459.81;;;15.45;88.69
12897;BME280;6516;35.028;32.372;2023-03-15T07:24:31;99471.38;;;15.44;90.54
12897;BME280;6516;35.028;32.372;2023-03-15T07:26:58;99468.41;;;15.50;90.89
12897;BME280;6516;35.028;32.372;2023-03-15T07:29:26;99466.69;;;15.49;89.18
12897;BME280;6516;35.028;32.372;2023-03-15T07:31:54;99470.94;;;15.53;88.76
12897;BME280;6516;35.028;32.372;2023-03-15T07:34:22;99458.53;;;15.70;89.02
12897;BME280;6516;35.028;32.372;2023-03-15T07:36:50;99462.03;;;15.89;87.29
12897;BME280;6516;35.028;32.372;2023-03-15T07:39:19;99464.91;;;16.02;85.86
12897;BME280;6516;35.028;32.372;2023-03-15T07:41:48;99463.66;;;16.09;85.72
12897;BME280;6516;35.028;32.372;2023-03-15T07:44:15;99470.38;;;16.16;84.58
12897;BME280;6516;35.028;32.372;2023-03-15T07:46:43;99457.66;;;16.22;84.36
12897;BME280;6516;35.028;32.372;2023-03-15T07:49:11;99463.88;;;16.38;84.23
12897;BME280;6516;35.028;32.372;2023-03-15T07:51:39;99465.63;;;16.72;83.78
12897;BME280;6516;35.028;32.372;2023-03-15T07:54:08;99455.22;;;17.00;82.18
12897;BME280;6516;35.028;32.372;2023-03-15T07:56:37;99459.03;;;17.11;81.72
12897;BME280;6516;35.028;32.372;2023-03-15T07:59:05;99468.47;;;17.17;80.09
12897;BME280;6516;35.028;32.372;2023-03-15T08:01:34;99458.84;;;17.30;79.26
12897;BME280;6516;35.028;32.372;2023-03-15T08:04:02;99460.31;;;17.35;79.16
12897;BME280;6516;35.028;32.372;2023-03-15T08:06:30;99469.63;;;17.44;78.95
12897;BME280;6516;35.028;32.372;2023-03-15T08:08:58;99464.78;;;17.19;78.58
12897;BME280;6516;35.028;32.372;2023-03-15T08:11:28;99464.19;;;17.30;79.17
12897;BME280;6516;35.028;32.372;2023-03-15T08:13:58;99468.38;;;17.34;78.15
12897;BME280;6516;35.028;32.372;2023-03-15T08:16:26;99462.97;;;17.20;78.25
12897;BME280;6516;35.028;32.372;2023-03-15T08:18:53;99469.50;;;17.14;77.81
12897;BME280;6516;35.028;32.372;2023-03-15T08:21:21;99473.09;;;17.13;79.04
12897;BME280;6516;35.028;32.372;2023-03-15T08:23:49;99470.88;;;17.06;78.97
12897;BME280;6516;35.028;32.372;2023-03-15T08:26:17;99470.00;;;17.05;79.22
12897;BME280;6516;35.028;32.372;2023-03-15T08:28:45;99469.22;;;17.03;78.32
12897;BME280;6516;35.028;32.372;2023-03-15T08:31:14;99461.19;;;17.05;78.20
12897;BME280;6516;35.028;32.372;2023-03-15T08:33:42;99456.66;;;17.53;78.97
12897;BME280;6516;35.028;32.372;2023-03-15T08:36:10;99451.59;;;18.23;76.45
12897;BME280;6516;35.028;32.372;2023-03-15T08:38:37;99456.34;;;19.18;73.77
12897;BME280;6516;35.028;32.372;2023-03-15T08:41:06;99459.38;;;19.93;69.47
12897;BME280;6516;35.028;32.372;2023-03-15T08:43:34;99463.69;;;20.35;68.06
12897;BME280;6516;35.028;32.372;2023-03-15T08:46:02;99464.41;;;20.24;64.96
12897;BME280;6516;35.028;32.372;2023-03-15T08:48:31;99464.75;;;20.57;67.41
12897;BME280;6516;35.028;32.372;2023-03-15T08:51:01;99470.50;;;20.26;68.95
12897;BME280;6516;35.028;32.372;2023-03-15T08:53:30;99473.34;;;19.84;68.99
12897;BME280;6516;35.028;32.372;2023-03-15T08:55:58;99479.31;;;19.34;72.06
12897;BME280;6516;35.028;32.372;2023-03-15T08:58:26;99477.31;;;18.82;71.59
12897;BME280;6516;35.028;32.372;2023-03-15T09:00:54;99477.81;;;18.15;73.70
12897;BME280;6516;35.028;32.372;2023-03-15T09:03:22;99479.28;;;17.76;75.04
12897;BME280;6516;35.028;32.372;2023-03-15T09:05:54;99485.66;;;17.42;75.82
12897;BME280;6516;35.028;32.372;2023-03-15T09:08:22;99483.59;;;17.16;77.92
12897;BME280;6516;35.028;32.372;2023-03-15T09:10:53;99489.19;;;16.95;78.15
12897;BME280;6516;35.028;32.372;2023-03-15T09:13:21;99482.91;;;16.80;77.92
12897;BME280;6516;35.028;32.372;2023-03-15T09:15:50;99491.16;;;16.59;78.03
12897;BME280;6516;35.028;32.372;2023-03-15T09:18:18;99498.03;;;16.63;77.73
12897;BME280;6516;35.028;32.372;2023-03-15T09:20:47;99483.06;;;16.77;77.56
12897;BME280;6516;35.028;32.372;2023-03-15T09:23:16;99487.63;;;16.91;78.29
12897;BME280;6516;35.028;32.372;2023-03-15T09:25:44;99481.94;;;17.14;75.97
12897;BME280;6516;35.028;32.372;2023-03-15T09:28:12;99487.56;;;17.40;72.59
12897;BME280;6516;35.028;32.372;2023-03-15T09:30:40;99493.41;;;17.78;73.15
12897;BME280;6516;35.028;32.372;2023-03-15T09:33:09;99494.34;;;18.06;70.72
12897;BME280;6516;35.028;32.372;2023-03-15T09:35:39;99495.66;;;18.29;66.64
12897;BME280;6516;35.028;32.372;2023-03-15T09:38:07;99498.69;;;18.38;64.91
12897;BME280;6516;35.028;32.372;2023-03-15T09:40:40;99497.28;;;18.47;63.22
12897;BME280;6516;35.028;32.372;2023-03-15T09:43:24;99497.13;;;18.78;60.66
12897;BME280;6516;35.028;32.372;2023-03-15T09:46:12;99501.41;;;18.94;59.72
12897;BME280;6516;35.028;32.372;2023-03-15T09:48:59;99493.38;;;19.50;60.07
12897;BME280;6516;35.028;32.372;2023-03-15T09:51:37;99488.50;;;20.37;59.25
12897;BME280;6516;35.028;32.372;2023-03-15T09:54:10;99489.84;;;20.81;58.05
12897;BME280;6516;35.028;32.372;2023-03-15T09:56:48;99495.19;;;21.06;55.70
12897;BME280;6516;35.028;32.372;2023-03-15T09:59:20;99490.56;;;21.33;55.84
12897;BME280;6516;35.028;32.372;2023-03-15T10:01:53;99494.50;;;21.28;56.51
12897;BME280;6516;35.028;32.372;2023-03-15T10:04:27;99478.25;;;21.67;56.49
12897;BME280;6516;35.028;32.372;2023-03-15T10:07:01;99488.34;;;21.63;56.58
12897;BME280;6516;35.028;32.372;2023-03-15T10:09:31;99495.00;;;21.58;55.14
12897;BME280;6516;35.028;32.372;2023-03-15T10:12:04;99492.16;;;21.36;55.07
12897;BME280;6516;35.028;32.372;2023-03-15T10:14:54;99497.66;;;20.97;55.07
12897;BME280;6516;35.028;32.372;2023-03-15T10:17:32;99501.34;;;20.44;57.72
12897;BME280;6516;35.028;32.372;2023-03-15T10:20:06;99495.75;;;20.22;58.18
12897;BME280;6516;35.028;32.372;2023-03-15T10:22:42;99489.22;;;20.00;58.32
12897;BME280;6516;35.028;32.372;2023-03-15T10:25:16;99493.81;;;19.71;58.24
12897;BME280;6516;35.028;32.372;2023-03-15T10:27:51;99489.78;;;19.37;61.60
12897;BME280;6516;35.028;32.372;2023-03-15T10:30:23;99489.31;;;19.45;62.06
12897;BME280;6516;35.028;32.372;2023-03-15T10:32:56;99486.53;;;19.32;60.67
12897;BME280;6516;35.028;32.372;2023-03-15T10:35:28;99485.91;;;19.29;61.13
12897;BME280;6516;35.028;32.372;2023-03-15T10:37:57;99485.69;;;19.18;60.71
12897;BME280;6516;35.028;32.372;2023-03-15T10:40:38;99491.00;;;19.04;62.54
12897;BME280;6516;35.028;32.372;2023-03-15T10:43:16;99484.47;;;18.81;64.30
12897;BME280;6516;35.028;32.372;2023-03-15T10:48:26;99490.09;;;18.77;65.61
12897;BME280;6516;35.028;32.372;2023-03-15T10:50:56;99477.69;;;19.04;64.50
12897;BME280;6516;35.028;32.372;2023-03-15T10:53:24;99473.03;;;19.62;60.69
12897;BME280;6516;35.028;32.372;2023-03-15T10:55:58;99467.53;;;20.43;60.92
12897;BME280;6516;35.028;32.372;2023-03-15T10:58:39;99475.47;;;20.82;60.08
12897;BME280;6516;35.028;32.372;2023-03-15T11:01:13;99459.22;;;21.10;57.61
12897;BME280;6516;35.028;32.372;2023-03-15T11:04:00;99461.25;;;21.07;57.58
12897;BME280;6516;35.028;32.372;2023-03-15T11:06:40;99457.19;;;20.89;57.28
12897;BME280;6516;35.028;32.372;2023-03-15T11:09:11;99458.88;;;20.52;60.31
12897;BME280;6516;35.028;32.372;2023-03-15T11:11:55;99456.00;;;20.04;61.45
12897;BME280;6516;35.028;32.372;2023-03-15T11:14:32;99455.31;;;19.61;63.88
12897;BME280;6516;35.028;32.372;2023-03-15T11:17:02;99455.00;;;19.11;65.87
12897;BME280;6516;35.028;32.372;2023-03-15T11:19:33;99468.06;;;18.73;67.29
12897;BME280;6516;35.028;32.372;2023-03-15T11:22:04;99456.34;;;18.90;67.63
12897;BME280;6516;35.028;32.372;2023-03-15T11:24:32;99456.50;;;19.43;64.40
12897;BME280;6516;35.028;32.372;2023-03-15T11:27:03;99450.66;;;20.04;61.52
12897;BME280;6516;35.028;32.372;2023-03-15T11:29:39;99455.03;;;20.69;59.69
12897;BME280;6516;35.028;32.372;2023-03-15T11:32:13;99455.16;;;20.92;57.10
12897;BME280;6516;35.028;32.372;2023-03-15T11:34:45;99456.25;;;21.38;55.82
12897;BME280;6516;35.028;32.372;2023-03-15T11:37:19;99461.19;;;21.68;54.60
12897;BME280;6516;35.028;32.372;2023-03-15T11:39:52;99457.59;;;21.20;54.79
12897;BME280;6516;35.028;32.372;2023-03-15T11:42:28;99467.75;;;21.28;55.57
12897;BME280;6516;35.028;32.372;2023-03-15T11:45:02;99469.16;;;20.83;57.12
12897;BME280;6516;35.028;32.372;2023-03-15T11:47:40;99462.00;;;20.59;58.44
12897;BME280;6516;35.028;32.372;2023-03-15T11:50:13;99463.59;;;20.36;59.61
12897;BME280;6516;35.028;32.372;2023-03-15T11:52:41;99463.66;;;20.22;60.85
12897;BME280;6516;35.028;32.372;2023-03-15T11:55:16;99456.25;;;19.87;62.40
12897;BME280;6516;35.028;32.372;2023-03-15T11:57:46;99465.19;;;19.73;62.83
12897;BME280;6516;35.028;32.372;2023-03-15T12:03:39;99466.59;;;19.52;63.47
12897;BME280;6516;35.028;32.372;2023-03-15T12:09:02;99461.97;;;19.68;63.08
12897;BME280;6516;35.028;32.372;2023-03-15T12:12:18;99463.25;;;19.48;62.79
12897;BME280;6516;35.028;32.372;2023-03-15T12:15:05;99459.00;;;19.32;63.64
12897;BME280;6516;35.028;32.372;2023-03-15T12:17:45;99463.88;;;18.97;66.75
12897;BME280;6516;35.028;32.372;2023-03-15T12:20:21;99461.50;;;18.93;66.45
12897;BME280;6516;35.028;32.372;2023-03-15T12:23:11;99459.19;;;19.15;67.33
12897;BME280;6516;35.028;32.372;2023-03-15T12:25:52;99453.22;;;18.97;66.10
12897;BME280;6516;35.028;32.372;2023-03-15T12:28:25;99451.97;;;18.89;65.33
12897;BME280;6516;35.028;32.372;2023-03-15T12:30:58;99458.25;;;18.46;67.10
12897;BME280;6516;35.028;32.372;2023-03-15T12:33:31;99463.75;;;18.43;67.79
12897;BME280;6516;35.028;32.372;2023-03-15T12:36:01;99474.06;;;18.04;71.12
12897;BME280;6516;35.028;32.372;2023-03-15T12:38:36;99462.66;;;17.57;74.11
12897;BME280;6516;35.028;32.372;2023-03-15T12:41:07;99482.38;;;17.37;74.69
12897;BME280;6516;35.028;32.372;2023-03-15T12:44:17;99478.75;;;17.07;77.26
12897;BME280;6516;35.028;32.372;2023-03-15T12:46:55;99483.72;;;16.98;77.16
12897;BME280;6516;35.028;32.372;2023-03-15T12:49:36;99493.00;;;16.74;79.92
12897;BME280;6516;35.028;32.372;2023-03-15T12:52:24;99491.00;;;16.62;79.69
12897;BME280;6516;35.028;32.372;2023-03-15T12:55:04;99488.81;;;16.53;80.28
12897;BME280;6516;35.028;32.372;2023-03-15T12:57:46;99486.00;;;16.39;81.63
12897;BME280;6516;35.028;32.372;2023-03-15T13:00:20;99485.38;;;16.34;80.68
12897;BME280;6516;35.028;32.372;2023-03-15T13:02:52;99482.38;;;16.23;80.58
12897;BME280;6516;35.028;32.372;2023-03-15T13:05:35;99493.00;;;16.23;80.12
12897;BME280;6516;35.028;32.372;2023-03-15T13:08:20;99490.84;;;16.31;80.12
12897;BME280;6516;35.028;32.372;2023-03-15T13:11:08;99490.94;;;16.46;79.67
12897;BME280;6516;35.028;32.372;2023-03-15T13:13:56;99485.72;;;16.77;79.60
12897;BME280;6516;35.028;32.372;2023-03-15T13:16:32;99483.97;;;17.09;76.28
12897;BME280;6516;35.028;32.372;2023-03-15T13:19:13;99490.31;;;17.54;73.91
12897;BME280;6516;35.028;32.372;2023-03-15T13:21:57;99482.53;;;17.81;72.26
12897;BME280;6516;35.028;32.372;2023-03-15T13:24:39;99479.09;;;17.94;71.41
12897;BME280;6516;35.028;32.372;2023-03-15T13:27:18;99488.00;;;18.09;70.86